sensor_id;sensor_type;location;lat;lon;timestamp;temperature;humidity
23395;DHT22;11870;53.084;18.206;2023-04-21T00:02:09;5.70;99.90
23395;DHT22;11870;53.084;18.206;2023-04-21T00:04:36;5.50;99.90
23395;DHT22;11870;53.084;18.206;2023-04-21T00:14:22;5.30;99.90
23395;DHT22;11870;53.084;18.206;2023-04-21T00:16:47;5.10;99.90
23395;DHT22;11870;53.084;18.206;2023-04-21T00:19:18;5.10;99.90
23395;DHT22;11870;53.084;18.206;2023-04-21T00:31:30;4.70;99.90
23395;DHT22;11870;53.084;18.206;2023-04-21T00:41:19;4.50;99.90
23395;DHT22;11870;53.084;18.206;2023-04-21T00:44:06;4.40;99.90
23395;DHT22;11870;53.084;18.206;2023-04-21T00:46:33;4.30;99.90
23395;DHT22;11870;53.084;18.206;2023-04-21T00:51:27;4.20;99.90
23395;DHT22;11870;53.084;18.206;2023-04-21T00:53:55;4.10;99.90
23395;DHT22;11870;53.084;18.206;2023-04-21T00:58:48;4.00;99.90
23395;DHT22;11870;53.084;18.206;2023-04-21T01:11:08;3.80;99.90
23395;DHT22;11870;53.084;18.206;2023-04-21T01:13:35;3.70;99.90
23395;DHT22;11870;53.084;18.206;2023-04-21T01:16:01;3.50;99.90
23395;DHT22;11870;53.084;18.206;2023-04-21T01:18:27;3.60;99.90
23395;DHT22;11870;53.084;18.206;2023-04-21T01:23:20;3.60;99.90
23395;DHT22;11870;53.084;18.206;2023-04-21T01:28:12;3.50;99.90
23395;DHT22;11870;53.084;18.206;2023-04-21T01:30:38;3.40;99.90
23395;DHT22;11870;53.084;18.206;2023-04-21T01:35:30;3.40;99.90
23395;DHT22;11870;53.084;18.206;2023-04-21T01:50:09;3.00;99.90
23395;DHT22;11870;53.084;18.206;2023-04-21T01:59:54;2.90;99.90
23395;DHT22;11870;53.084;18.206;2023-04-21T02:41:26;2.30;99.90
23395;DHT22;11870;53.084;18.206;2023-04-21T02:56:06;2.10;99.90
23395;DHT22;11870;53.084;18.206;2023-04-21T02:58:34;2.20;99.90
23395;DHT22;11870;53.084;18.206;2023-04-21T03:10:57;2.00;99.90
23395;DHT22;11870;53.084;18.206;2023-04-21T03:18:16;1.80;99.90
23395;DHT22;11870;53.084;18.206;2023-04-21T03:20:43;1.80;99.90
23395;DHT22;11870;53.084;18.206;2023-04-21T03:25:37;1.70;99.90
23395;DHT22;11870;53.084;18.206;2023-04-21T03:35:23;1.70;99.90
23395;DHT22;11870;53.084;18.206;2023-04-21T03:45:09;1.70;99.90
23395;DHT22;11870;53.084;18.206;2023-04-21T03:50:05;1.50;99.90
23395;DHT22;11870;53.084;18.206;2023-04-21T04:16:57;4.20;99.90
23395;DHT22;11870;53.084;18.206;2023-04-21T04:19:29;5.20;99.90
23395;DHT22;11870;53.084;18.206;2023-04-21T04:21:58;6.00;99.90
23395;DHT22;11870;53.084;18.206;2023-04-21T04:26:51;6.80;99.90
23395;DHT22;11870;53.084;18.206;2023-04-21T04:29:20;7.90;99.90
23395;DHT22;11870;53.084;18.206;2023-04-21T04:31:51;8.40;99.90
23395;DHT22;11870;53.084;18.206;2023-04-21T04:34:18;8.40;99.90
23395;DHT22;11870;53.084;18.206;2023-04-21T04:39:11;9.40;99.90
23395;DHT22;11870;53.084;18.206;2023-04-21T04:46:30;11.40;99.90
23395;DHT22;11870;53.084;18.206;2023-04-21T04:48:57;12.20;99.90
23395;DHT22;11870;53.084;18.206;2023-04-21T04:53:49;13.80;99.90
23395;DHT22;11870;53.084;18.206;2023-04-21T04:58:42;15.50;99.90
23395;DHT22;11870;53.084;18.206;2023-04-21T05:01:17;16.20;99.90
23395;DHT22;11870;53.084;18.206;2023-04-21T05:03:44;17.90;91.90
23395;DHT22;11870;53.084;18.206;2023-04-21T05:06:10;19.60;91.70
23395;DHT22;11870;53.084;18.206;2023-04-21T05:08:36;18.60;84.40
23395;DHT22;11870;53.084;18.206;2023-04-21T05:11:04;19.20;70.10
23395;DHT22;11870;53.084;18.206;2023-04-21T05:13:43;19.90;69.30
23395;DHT22;11870;53.084;18.206;2023-04-21T05:16:12;20.40;63.40
23395;DHT22;11870;53.084;18.206;2023-04-21T05:18:38;21.20;59.80
23395;DHT22;11870;53.084;18.206;2023-04-21T05:21:04;21.90;55.30
23395;DHT22;11870;53.084;18.206;2023-04-21T05:23:31;22.50;50.80
23395;DHT22;11870;53.084;18.206;2023-04-21T05:26:00;23.00;49.50
23395;DHT22;11870;53.084;18.206;2023-04-21T05:28:35;23.50;48.30
23395;DHT22;11870;53.084;18.206;2023-04-21T05:31:01;24.20;44.80
23395;DHT22;11870;53.084;18.206;2023-04-21T05:33:27;24.60;44.00
23395;DHT22;11870;53.084;18.206;2023-04-21T05:35:56;25.40;41.00
23395;DHT22;11870;53.084;18.206;2023-04-21T05:38:22;26.10;39.70
23395;DHT22;11870;53.084;18.206;2023-04-21T05:40:54;26.60;37.80
23395;DHT22;11870;53.084;18.206;2023-04-21T05:43:20;27.20;35.40
23395;DHT22;11870;53.084;18.206;2023-04-21T05:45:47;27.80;34.90
23395;DHT22;11870;53.084;18.206;2023-04-21T05:48:13;28.80;34.10
23395;DHT22;11870;53.084;18.206;2023-04-21T05:50:39;29.50;31.20
23395;DHT22;11870;53.084;18.206;2023-04-21T05:53:05;30.20;30.30
23395;DHT22;11870;53.084;18.206;2023-04-21T05:55:33;30.70;28.30
23395;DHT22;11870;53.084;18.206;2023-04-21T05:58:00;31.40;28.50
23395;DHT22;11870;53.084;18.206;2023-04-21T06:00:26;32.00;26.70
23395;DHT22;11870;53.084;18.206;2023-04-21T06:02:52;32.60;27.00
23395;DHT22;11870;53.084;18.206;2023-04-21T06:05:17;33.20;24.70
23395;DHT22;11870;53.084;18.206;2023-04-21T06:07:44;33.30;24.30
23395;DHT22;11870;53.084;18.206;2023-04-21T06:10:10;33.70;24.70
23395;DHT22;11870;53.084;18.206;2023-04-21T06:12:36;34.20;23.70
23395;DHT22;11870;53.084;18.206;2023-04-21T06:15:02;34.50;22.80
23395;DHT22;11870;53.084;18.206;2023-04-21T06:17:28;34.70;22.20
23395;DHT22;11870;53.084;18.206;2023-04-21T06:19:54;35.00;21.40
23395;DHT22;11870;53.084;18.206;2023-04-21T06:22:24;34.90;20.80
23395;DHT22;11870;53.084;18.206;2023-04-21T06:24:50;35.00;21.00
23395;DHT22;11870;53.084;18.206;2023-04-21T06:27:17;35.30;21.30
23395;DHT22;11870;53.084;18.206;2023-04-21T06:29:42;35.50;20.50
23395;DHT22;11870;53.084;18.206;2023-04-21T06:32:12;35.30;19.80
23395;DHT22;11870;53.084;18.206;2023-04-21T06:34:38;35.20;20.60
23395;DHT22;11870;53.084;18.206;2023-04-21T06:37:04;35.20;20.60
23395;DHT22;11870;53.084;18.206;2023-04-21T06:39:30;35.30;20.40
23395;DHT22;11870;53.084;18.206;2023-04-21T06:41:56;35.40;19.80
23395;DHT22;11870;53.084;18.206;2023-04-21T06:44:22;35.20;19.70
23395;DHT22;11870;53.084;18.206;2023-04-21T06:46:48;34.80;20.00
23395;DHT22;11870;53.084;18.206;2023-04-21T06:49:14;34.90;20.30
23395;DHT22;11870;53.084;18.206;2023-04-21T06:51:40;35.20;20.60
23395;DHT22;11870;53.084;18.206;2023-04-21T06:54:06;35.30;19.80
23395;DHT22;11870;53.084;18.206;2023-04-21T06:56:32;35.20;20.20
23395;DHT22;11870;53.084;18.206;2023-04-21T06:58:58;35.60;19.70
23395;DHT22;11870;53.084;18.206;2023-04-21T07:01:24;35.70;20.10
23395;DHT22;11870;53.084;18.206;2023-04-21T07:03:51;36.20;19.80
23395;DHT22;11870;53.084;18.206;2023-04-21T07:06:17;36.60;19.40
23395;DHT22;11870;53.084;18.206;2023-04-21T07:08:43;37.00;18.60
23395;DHT22;11870;53.084;18.206;2023-04-21T07:11:09;37.10;18.00
23395;DHT22;11870;53.084;18.206;2023-04-21T07:13:35;36.90;17.70
23395;DHT22;11870;53.084;18.206;2023-04-21T07:16:01;36.90;17.90
23395;DHT22;11870;53.084;18.206;2023-04-21T07:18:26;36.60;17.50
23395;DHT22;11870;53.084;18.206;2023-04-21T07:20:53;36.30;17.70
23395;DHT22;11870;53.084;18.206;2023-04-21T07:23:18;36.20;17.80
23395;DHT22;11870;53.084;18.206;2023-04-21T07:25:44;35.80;18.40
23395;DHT22;11870;53.084;18.206;2023-04-21T07:28:10;35.90;18.20
23395;DHT22;11870;53.084;18.206;2023-04-21T07:30:36;35.50;18.60
23395;DHT22;11870;53.084;18.206;2023-04-21T07:33:02;35.60;19.20
23395;DHT22;11870;53.084;18.206;2023-04-21T07:35:28;35.70;18.20
23395;DHT22;11870;53.084;18.206;2023-04-21T07:37:54;35.70;18.70
23395;DHT22;11870;53.084;18.206;2023-04-21T07:40:20;35.90;18.80
23395;DHT22;11870;53.084;18.206;2023-04-21T07:42:45;36.00;18.70
23395;DHT22;11870;53.084;18.206;2023-04-21T07:45:11;35.70;19.00
23395;DHT22;11870;53.084;18.206;2023-04-21T07:47:37;35.70;18.10
23395;DHT22;11870;53.084;18.206;2023-04-21T07:50:04;35.60;19.00
23395;DHT22;11870;53.084;18.206;2023-04-21T07:52:30;36.00;18.80
23395;DHT22;11870;53.084;18.206;2023-04-21T07:54:56;36.50;18.60
23395;DHT22;11870;53.084;18.206;2023-04-21T07:57:22;36.90;18.00
23395;DHT22;11870;53.084;18.206;2023-04-21T07:59:48;36.90;17.50
23395;DHT22;11870;53.084;18.206;2023-04-21T08:02:14;36.90;17.70
23395;DHT22;11870;53.084;18.206;2023-04-21T08:04:40;36.40;17.90
23395;DHT22;11870;53.084;18.206;2023-04-21T08:07:06;37.00;17.70
23395;DHT22;11870;53.084;18.206;2023-04-21T08:11:58;37.90;16.60
23395;DHT22;11870;53.084;18.206;2023-04-21T08:14:25;37.50;17.20
23395;DHT22;11870;53.084;18.206;2023-04-21T08:16:51;37.10;17.40
23395;DHT22;11870;53.084;18.206;2023-04-21T08:19:17;36.50;17.40
23395;DHT22;11870;53.084;18.206;2023-04-21T08:21:43;36.60;18.00
23395;DHT22;11870;53.084;18.206;2023-04-21T08:24:09;36.80;17.60
23395;DHT22;11870;53.084;18.206;2023-04-21T08:26:35;37.10;17.30
23395;DHT22;11870;53.084;18.206;2023-04-21T08:29:01;36.70;17.30
23395;DHT22;11870;53.084;18.206;2023-04-21T08:31:27;36.80;16.60
23395;DHT22;11870;53.084;18.206;2023-04-21T08:33:53;37.00;16.90
23395;DHT22;11870;53.084;18.206;2023-04-21T08:36:19;36.90;16.70
23395;DHT22;11870;53.084;18.206;2023-04-21T08:38:45;36.00;17.40
23395;DHT22;11870;53.084;18.206;2023-04-21T08:41:12;35.80;18.00
23395;DHT22;11870;53.084;18.206;2023-04-21T08:43:38;35.90;17.90
23395;DHT22;11870;53.084;18.206;2023-04-21T08:46:06;36.30;17.10
23395;DHT22;11870;53.084;18.206;2023-04-21T08:48:36;36.60;17.40
23395;DHT22;11870;53.084;18.206;2023-04-21T08:51:05;36.70;16.60
23395;DHT22;11870;53.084;18.206;2023-04-21T08:55:58;36.40;16.40
23395;DHT22;11870;53.084;18.206;2023-04-21T08:58:24;36.40;16.80
23395;DHT22;11870;53.084;18.206;2023-04-21T09:00:49;36.30;17.00
23395;DHT22;11870;53.084;18.206;2023-04-21T09:03:23;36.30;17.20
23395;DHT22;11870;53.084;18.206;2023-04-21T09:06:07;36.40;16.90
23395;DHT22;11870;53.084;18.206;2023-04-21T09:08:38;36.70;16.20
23395;DHT22;11870;53.084;18.206;2023-04-21T09:11:06;36.30;16.90
23395;DHT22;11870;53.084;18.206;2023-04-21T09:13:35;35.80;17.30
23395;DHT22;11870;53.084;18.206;2023-04-21T09:16:03;35.50;16.70
23395;DHT22;11870;53.084;18.206;2023-04-21T09:18:30;35.60;16.80
23395;DHT22;11870;53.084;18.206;2023-04-21T09:21:09;35.30;17.00
23395;DHT22;11870;53.084;18.206;2023-04-21T09:23:49;34.90;17.70
23395;DHT22;11870;53.084;18.206;2023-04-21T09:26:16;34.80;18.00
23395;DHT22;11870;53.084;18.206;2023-04-21T09:28:44;35.30;17.20
23395;DHT22;11870;53.084;18.206;2023-04-21T09:31:15;35.80;17.00
23395;DHT22;11870;53.084;18.206;2023-04-21T09:34:19;35.90;16.10
23395;DHT22;11870;53.084;18.206;2023-04-21T09:36:37;35.30;16.20
23395;DHT22;11870;53.084;18.206;2023-04-21T09:39:03;35.10;16.10
23395;DHT22;11870;53.084;18.206;2023-04-21T09:41:30;35.00;15.10
23395;DHT22;11870;53.084;18.206;2023-04-21T09:43:57;34.70;15.60
23395;DHT22;11870;53.084;18.206;2023-04-21T09:46:28;34.00;16.70
23395;DHT22;11870;53.084;18.206;2023-04-21T09:49:01;33.70;17.70
23395;DHT22;11870;53.084;18.206;2023-04-21T09:51:29;33.30;17.70
23395;DHT22;11870;53.084;18.206;2023-04-21T09:53:58;33.80;17.50
23395;DHT22;11870;53.084;18.206;2023-04-21T09:56:27;34.30;17.20
23395;DHT22;11870;53.084;18.206;2023-04-21T09:59:00;34.90;16.50
23395;DHT22;11870;53.084;18.206;2023-04-21T10:01:30;35.40;16.10
23395;DHT22;11870;53.084;18.206;2023-04-21T10:03:57;35.40;15.70
23395;DHT22;11870;53.084;18.206;2023-04-21T10:06:24;34.70;15.80
23395;DHT22;11870;53.084;18.206;2023-04-21T10:08:51;34.20;15.90
23395;DHT22;11870;53.084;18.206;2023-04-21T10:11:17;34.20;16.70
23395;DHT22;11870;53.084;18.206;2023-04-21T10:13:44;34.70;16.30
23395;DHT22;11870;53.084;18.206;2023-04-21T10:16:10;34.70;16.70
23395;DHT22;11870;53.084;18.206;2023-04-21T10:18:38;33.90;16.80
23395;DHT22;11870;53.084;18.206;2023-04-21T10:21:08;32.90;16.90
23395;DHT22;11870;53.084;18.206;2023-04-21T10:23:40;32.40;17.90
23395;DHT22;11870;53.084;18.206;2023-04-21T10:26:12;31.40;18.70
23395;DHT22;11870;53.084;18.206;2023-04-21T10:31:24;28.40;20.30
23395;DHT22;11870;53.084;18.206;2023-04-21T10:36:32;26.30;22.90
23395;DHT22;11870;53.084;18.206;2023-04-21T10:39:02;25.60;23.20
23395;DHT22;11870;53.084;18.206;2023-04-21T10:41:33;25.20;24.00
23395;DHT22;11870;53.084;18.206;2023-04-21T10:46:36;23.50;25.00
23395;DHT22;11870;53.084;18.206;2023-04-21T10:52:16;22.70;26.30
23395;DHT22;11870;53.084;18.206;2023-04-21T10:54:20;22.40;26.60
23395;DHT22;11870;53.084;18.206;2023-04-21T10:56:50;21.70;27.60
23395;DHT22;11870;53.084;18.206;2023-04-21T10:59:17;21.20;27.60
23395;DHT22;11870;53.084;18.206;2023-04-21T11:01:47;21.00;27.70
23395;DHT22;11870;53.084;18.206;2023-04-21T11:04:18;20.90;28.60
23395;DHT22;11870;53.084;18.206;2023-04-21T11:09:34;20.70;29.70
23395;DHT22;11870;53.084;18.206;2023-04-21T11:12:01;20.70;29.80
23395;DHT22;11870;53.084;18.206;2023-04-21T11:14:30;20.50;30.10
23395;DHT22;11870;53.084;18.206;2023-04-21T11:16:55;20.50;30.40
23395;DHT22;11870;53.084;18.206;2023-04-21T11:19:22;20.30;30.40
23395;DHT22;11870;53.084;18.206;2023-04-21T11:21:50;20.60;31.50
23395;DHT22;11870;53.084;18.206;2023-04-21T11:24:19;20.30;30.30
23395;DHT22;11870;53.084;18.206;2023-04-21T11:26:45;19.90;30.70
23395;DHT22;11870;53.084;18.206;2023-04-21T11:29:12;19.90;30.20
23395;DHT22;11870;53.084;18.206;2023-04-21T11:31:41;20.00;30.70
23395;DHT22;11870;53.084;18.206;2023-04-21T11:36:39;20.00;30.80
23395;DHT22;11870;53.084;18.206;2023-04-21T11:39:08;20.10;31.90
23395;DHT22;11870;53.084;18.206;2023-04-21T11:49:06;19.80;30.60
23395;DHT22;11870;53.084;18.206;2023-04-21T11:51:39;19.70;31.00
23395;DHT22;11870;53.084;18.206;2023-04-21T11:54:12;19.60;31.20
23395;DHT22;11870;53.084;18.206;2023-04-21T11:56:42;20.10;32.20
23395;DHT22;11870;53.084;18.206;2023-04-21T11:59:12;19.80;32.80
23395;DHT22;11870;53.084;18.206;2023-04-21T12:01:45;19.80;32.30
23395;DHT22;11870;53.084;18.206;2023-04-21T12:04:22;19.80;32.00
23395;DHT22;11870;53.084;18.206;2023-04-21T12:07:00;19.90;31.50
23395;DHT22;11870;53.084;18.206;2023-04-21T12:09:29;19.90;31.90
23395;DHT22;11870;53.084;18.206;2023-04-21T12:11:56;19.90;32.80
23395;DHT22;11870;53.084;18.206;2023-04-21T12:14:24;19.80;32.10
23395;DHT22;11870;53.084;18.206;2023-04-21T12:16:55;20.30;33.10
23395;DHT22;11870;53.084;18.206;2023-04-21T12:19:22;19.90;32.50
23395;DHT22;11870;53.084;18.206;2023-04-21T12:21:53;20.30;33.20
23395;DHT22;11870;53.084;18.206;2023-04-21T12:24:25;22.30;34.80
23395;DHT22;11870;53.084;18.206;2023-04-21T12:26:51;19.60;33.10
23395;DHT22;11870;53.084;18.206;2023-04-21T12:29:18;19.80;32.80
23395;DHT22;11870;53.084;18.206;2023-04-21T12:31:44;19.60;31.80
23395;DHT22;11870;53.084;18.206;2023-04-21T12:34:10;21.00;32.60
23395;DHT22;11870;53.084;18.206;2023-04-21T12:36:36;20.70;32.10
23395;DHT22;11870;53.084;18.206;2023-04-21T12:39:03;19.80;32.20
23395;DHT22;11870;53.084;18.206;2023-04-21T12:43:57;19.40;31.20
23395;DHT22;11870;53.084;18.206;2023-04-21T12:46:23;20.00;32.80
23395;DHT22;11870;53.084;18.206;2023-04-21T12:51:18;19.30;31.70
23395;DHT22;11870;53.084;18.206;2023-04-21T12:53:44;19.90;31.70
23395;DHT22;11870;53.084;18.206;2023-04-21T12:56:11;19.30;30.90
23395;DHT22;11870;53.084;18.206;2023-04-21T12:58:37;19.40;32.10
23395;DHT22;11870;53.084;18.206;2023-04-21T13:01:04;19.70;31.90
23395;DHT22;11870;53.084;18.206;2023-04-21T13:03:30;19.50;32.30
23395;DHT22;11870;53.084;18.206;2023-04-21T13:08:23;19.60;31.20
23395;DHT22;11870;53.084;18.206;2023-04-21T13:10:49;19.60;32.10
23395;DHT22;11870;53.084;18.206;2023-04-21T13:13:19;20.40;31.30
23395;DHT22;11870;53.084;18.206;2023-04-21T13:15:46;19.60;31.50
23395;DHT22;11870;53.084;18.206;2023-04-21T13:18:13;19.50;31.20
23395;DHT22;11870;53.084;18.206;2023-04-21T13:20:39;19.50;32.30
23395;DHT22;11870;53.084;18.206;2023-04-21T13:23:05;21.10;32.60
23395;DHT22;11870;53.084;18.206;2023-04-21T13:25:33;20.70;31.90
23395;DHT22;11870;53.084;18.206;2023-04-21T13:27:59;19.50;30.00
23395;DHT22;11870;53.084;18.206;2023-04-21T13:30:25;20.80;32.00
23395;DHT22;11870;53.084;18.206;2023-04-21T13:32:51;19.30;30.80
23395;DHT22;11870;53.084;18.206;2023-04-21T13:35:17;19.40;30.80
23395;DHT22;11870;53.084;18.206;2023-04-21T13:37:46;19.40;32.40
23395;DHT22;11870;53.084;18.206;2023-04-21T13:40:16;20.40;31.60
23395;DHT22;11870;53.084;18.206;2023-04-21T13:42:43;19.40;31.60
23395;DHT22;11870;53.084;18.206;2023-04-21T13:45:09;19.40;31.80
23395;DHT22;11870;53.084;18.206;2023-04-21T13:47:39;19.30;32.30
23395;DHT22;11870;53.084;18.206;2023-04-21T13:50:07;19.70;32.30
23395;DHT22;11870;53.084;18.206;2023-04-21T13:52:34;19.30;31.70
23395;DHT22;11870;53.084;18.206;2023-04-21T13:55:01;19.30;31.90
23395;DHT22;11870;53.084;18.206;2023-04-21T13:57:27;19.30;31.80
23395;DHT22;11870;53.084;18.206;2023-04-21T13:59:53;19.30;32.50
23395;DHT22;11870;53.084;18.206;2023-04-21T14:02:19;19.30;32.60
23395;DHT22;11870;53.084;18.206;2023-04-21T14:04:51;20.40;34.10
23395;DHT22;11870;53.084;18.206;2023-04-21T14:07:18;20.20;32.30
23395;DHT22;11870;53.084;18.206;2023-04-21T14:09:49;21.40;33.80
23395;DHT22;11870;53.084;18.206;2023-04-21T14:12:21;19.10;31.80
23395;DHT22;11870;53.084;18.206;2023-04-21T14:14:46;20.00;32.50
23395;DHT22;11870;53.084;18.206;2023-04-21T14:17:13;19.10;32.70
23395;DHT22;11870;53.084;18.206;2023-04-21T14:19:41;20.40;33.10
23395;DHT22;11870;53.084;18.206;2023-04-21T14:22:07;20.10;32.60
23395;DHT22;11870;53.084;18.206;2023-04-21T14:24:33;19.40;33.20
23395;DHT22;11870;53.084;18.206;2023-04-21T14:26:59;19.00;32.50
23395;DHT22;11870;53.084;18.206;2023-04-21T14:29:31;19.00;31.90
23395;DHT22;11870;53.084;18.206;2023-04-21T14:32:00;19.00;33.30
23395;DHT22;11870;53.084;18.206;2023-04-21T14:34:35;19.00;33.40
23395;DHT22;11870;53.084;18.206;2023-04-21T14:37:04;19.00;33.10
23395;DHT22;11870;53.084;18.206;2023-04-21T14:39:33;18.90;32.20
23395;DHT22;11870;53.084;18.206;2023-04-21T14:42:03;19.20;32.90
23395;DHT22;11870;53.084;18.206;2023-04-21T14:44:29;19.00;32.90
23395;DHT22;11870;53.084;18.206;2023-04-21T14:46:55;18.90;32.70
23395;DHT22;11870;53.084;18.206;2023-04-21T14:49:21;20.00;33.70
23395;DHT22;11870;53.084;18.206;2023-04-21T14:51:47;18.90;32.80
23395;DHT22;11870;53.084;18.206;2023-04-21T14:54:16;21.00;34.60
23395;DHT22;11870;53.084;18.206;2023-04-21T14:56:42;18.90;32.10
23395;DHT22;11870;53.084;18.206;2023-04-21T14:59:08;21.00;34.50
23395;DHT22;11870;53.084;18.206;2023-04-21T15:04:02;18.90;32.80
23395;DHT22;11870;53.084;18.206;2023-04-21T15:06:28;18.90;32.80
23395;DHT22;11870;53.084;18.206;2023-04-21T15:11:20;18.90;33.00
23395;DHT22;11870;53.084;18.206;2023-04-21T15:16:18;18.70;33.30
23395;DHT22;11870;53.084;18.206;2023-04-21T15:18:53;18.70;34.30
23395;DHT22;11870;53.084;18.206;2023-04-21T15:21:20;18.70;34.80
23395;DHT22;11870;53.084;18.206;2023-04-21T15:23:46;18.70;34.30
23395;DHT22;11870;53.084;18.206;2023-04-21T15:26:13;18.60;35.00
23395;DHT22;11870;53.084;18.206;2023-04-21T15:28:39;18.90;34.70
23395;DHT22;11870;53.084;18.206;2023-04-21T15:31:05;18.50;34.70
23395;DHT22;11870;53.084;18.206;2023-04-21T15:33:31;18.50;34.80
23395;DHT22;11870;53.084;18.206;2023-04-21T15:35:57;20.30;36.40
23395;DHT22;11870;53.084;18.206;2023-04-21T15:40:50;18.30;35.80
23395;DHT22;11870;53.084;18.206;2023-04-21T15:43:19;20.70;37.90
23395;DHT22;11870;53.084;18.206;2023-04-21T15:45:46;18.30;36.50
23395;DHT22;11870;53.084;18.206;2023-04-21T15:48:11;18.20;36.40
23395;DHT22;11870;53.084;18.206;2023-04-21T15:50:41;20.80;36.90
23395;DHT22;11870;53.084;18.206;2023-04-21T15:53:09;20.10;36.80
23395;DHT22;11870;53.084;18.206;2023-04-21T15:55:36;18.20;35.50
23395;DHT22;11870;53.084;18.206;2023-04-21T15:58:02;18.30;35.80
23395;DHT22;11870;53.084;18.206;2023-04-21T16:00:28;18.20;35.10
23395;DHT22;11870;53.084;18.206;2023-04-21T16:02:54;19.50;35.30
23395;DHT22;11870;53.084;18.206;2023-04-21T16:05:20;19.10;35.50
23395;DHT22;11870;53.084;18.206;2023-04-21T16:07:46;18.20;34.60
23395;DHT22;11870;53.084;18.206;2023-04-21T16:10:13;18.20;35.10
23395;DHT22;11870;53.084;18.206;2023-04-21T16:12:38;19.00;36.20
23395;DHT22;11870;53.084;18.206;2023-04-21T16:15:05;18.20;35.00
23395;DHT22;11870;53.084;18.206;2023-04-21T16:17:43;18.20;34.20
23395;DHT22;11870;53.084;18.206;2023-04-21T16:20:15;18.30;35.10
23395;DHT22;11870;53.084;18.206;2023-04-21T16:22:41;18.30;35.10
23395;DHT22;11870;53.084;18.206;2023-04-21T16:25:07;18.20;35.00
23395;DHT22;11870;53.084;18.206;2023-04-21T16:27:37;18.20;35.80
23395;DHT22;11870;53.084;18.206;2023-04-21T16:30:03;21.00;37.50
23395;DHT22;11870;53.084;18.206;2023-04-21T16:32:29;18.10;36.20
23395;DHT22;11870;53.084;18.206;2023-04-21T16:34:58;18.00;38.10
23395;DHT22;11870;53.084;18.206;2023-04-21T16:37:24;18.10;38.70
23395;DHT22;11870;53.084;18.206;2023-04-21T16:39:50;18.90;39.70
23395;DHT22;11870;53.084;18.206;2023-04-21T16:42:16;17.90;38.90
23395;DHT22;11870;53.084;18.206;2023-04-21T16:44:42;19.20;41.00
23395;DHT22;11870;53.084;18.206;2023-04-21T16:47:11;17.90;41.10
23395;DHT22;11870;53.084;18.206;2023-04-21T16:49:37;18.90;41.10
23395;DHT22;11870;53.084;18.206;2023-04-21T16:54:36;17.70;40.90
23395;DHT22;11870;53.084;18.206;2023-04-21T16:57:09;17.60;41.90
23395;DHT22;11870;53.084;18.206;2023-04-21T16:59:36;19.70;43.50
23395;DHT22;11870;53.084;18.206;2023-04-21T17:02:04;17.50;42.60
23395;DHT22;11870;53.084;18.206;2023-04-21T17:04:33;17.30;42.60
23395;DHT22;11870;53.084;18.206;2023-04-21T17:07:03;17.20;43.90
23395;DHT22;11870;53.084;18.206;2023-04-21T17:09:29;17.10;43.80
23395;DHT22;11870;53.084;18.206;2023-04-21T17:11:55;16.90;43.90
23395;DHT22;11870;53.084;18.206;2023-04-21T17:14:21;16.90;43.80
23395;DHT22;11870;53.084;18.206;2023-04-21T17:19:13;16.60;44.80
23395;DHT22;11870;53.084;18.206;2023-04-21T17:24:06;16.30;45.40
23395;DHT22;11870;53.084;18.206;2023-04-21T17:26:32;16.20;45.70
23395;DHT22;11870;53.084;18.206;2023-04-21T17:28:58;16.00;46.00
23395;DHT22;11870;53.084;18.206;2023-04-21T17:31:24;16.00;46.50
23395;DHT22;11870;53.084;18.206;2023-04-21T17:33:54;16.00;46.90
23395;DHT22;11870;53.084;18.206;2023-04-21T17:36:22;15.70;46.50
23395;DHT22;11870;53.084;18.206;2023-04-21T17:38:49;15.30;46.90
23395;DHT22;11870;53.084;18.206;2023-04-21T17:41:15;15.40;46.50
23395;DHT22;11870;53.084;18.206;2023-04-21T17:43:41;15.40;47.10
23395;DHT22;11870;53.084;18.206;2023-04-21T17:46:07;15.20;46.30
23395;DHT22;11870;53.084;18.206;2023-04-21T17:48:33;15.20;46.30
23395;DHT22;11870;53.084;18.206;2023-04-21T17:51:02;14.90;47.20
23395;DHT22;11870;53.084;18.206;2023-04-21T17:53:31;14.80;47.10
23395;DHT22;11870;53.084;18.206;2023-04-21T17:58:24;14.40;47.30
23395;DHT22;11870;53.084;18.206;2023-04-21T18:00:51;14.30;47.40
23395;DHT22;11870;53.084;18.206;2023-04-21T18:03:17;14.10;47.90
23395;DHT22;11870;53.084;18.206;2023-04-21T18:05:43;14.00;48.40
23395;DHT22;11870;53.084;18.206;2023-04-21T18:08:10;13.80;48.70
23395;DHT22;11870;53.084;18.206;2023-04-21T18:10:36;13.70;49.40
23395;DHT22;11870;53.084;18.206;2023-04-21T18:15:29;13.50;50.50
23395;DHT22;11870;53.084;18.206;2023-04-21T18:17:58;13.30;50.70
23395;DHT22;11870;53.084;18.206;2023-04-21T18:20:24;13.20;51.50
23395;DHT22;11870;53.084;18.206;2023-04-21T18:22:50;13.00;52.30
23395;DHT22;11870;53.084;18.206;2023-04-21T18:25:17;12.90;52.70
23395;DHT22;11870;53.084;18.206;2023-04-21T18:27:43;12.80;53.20
23395;DHT22;11870;53.084;18.206;2023-04-21T18:32:36;12.60;54.40
23395;DHT22;11870;53.084;18.206;2023-04-21T18:35:03;12.40;54.90
23395;DHT22;11870;53.084;18.206;2023-04-21T18:37:29;12.40;55.10
23395;DHT22;11870;53.084;18.206;2023-04-21T18:57:03;11.70;57.30
23395;DHT22;11870;53.084;18.206;2023-04-21T19:19:00;11.00;58.80
23395;DHT22;11870;53.084;18.206;2023-04-21T19:43:29;10.30;60.20
23395;DHT22;11870;53.084;18.206;2023-04-21T19:48:23;10.20;60.30
23395;DHT22;11870;53.084;18.206;2023-04-21T19:50:49;10.10;59.80
23395;DHT22;11870;53.084;18.206;2023-04-21T19:55:42;10.00;62.70
23395;DHT22;11870;53.084;18.206;2023-04-21T20:00:35;9.80;61.70
23395;DHT22;11870;53.084;18.206;2023-04-21T20:03:03;9.50;65.50
23395;DHT22;11870;53.084;18.206;2023-04-21T20:05:33;9.40;65.40
23395;DHT22;11870;53.084;18.206;2023-04-21T20:07:59;9.20;70.20
23395;DHT22;11870;53.084;18.206;2023-04-21T20:12:52;9.00;79.00
23395;DHT22;11870;53.084;18.206;2023-04-21T20:20:14;8.60;92.60
23395;DHT22;11870;53.084;18.206;2023-04-21T20:22:40;8.50;92.60
23395;DHT22;11870;53.084;18.206;2023-04-21T20:25:07;8.40;93.50
23395;DHT22;11870;53.084;18.206;2023-04-21T20:27:35;8.70;89.70
23395;DHT22;11870;53.084;18.206;2023-04-21T20:30:02;8.60;90.30
23395;DHT22;11870;53.084;18.206;2023-04-21T20:34:54;8.40;88.90
23395;DHT22;11870;53.084;18.206;2023-04-21T20:37:20;8.30;93.10
23395;DHT22;11870;53.084;18.206;2023-04-21T20:39:51;8.00;94.70
23395;DHT22;11870;53.084;18.206;2023-04-21T20:42:17;8.00;95.60
23395;DHT22;11870;53.084;18.206;2023-04-21T20:44:44;8.00;95.60
23395;DHT22;11870;53.084;18.206;2023-04-21T20:47:10;7.90;96.70